createdAt,value
2019-05-06T17:46:22.232Z,16.13
2019-05-06T17:49:15.742Z,16.02
2019-05-06T17:52:08.839Z,15.91
2019-05-06T17:54:40.394Z,15.72
2019-05-06T17:57:12.326Z,15.56
2019-05-06T17:59:44.915Z,15.54
2019-05-06T18:02:19.671Z,15.55
2019-05-06T18:04:50.372Z,15.49
2019-05-06T18:07:22.325Z,15.48
2019-05-06T18:09:53.543Z,15.48
2019-05-06T18:12:25.387Z,15.54
2019-05-06T18:14:56.151Z,15.49
2019-05-06T18:17:26.864Z,15.47
2019-05-06T18:19:59.565Z,15.43
2019-05-06T18:22:32.383Z,15.46
2019-05-06T18:25:02.613Z,15.52
2019-05-06T18:27:33.327Z,15.49
2019-05-06T18:30:17.788Z,15.41
2019-05-06T18:32:38.664Z,15.35
2019-05-06T18:35:12.973Z,15.38
2019-05-06T18:37:45.638Z,15.33
2019-05-06T18:40:18.042Z,15.37
2019-05-06T18:42:49.111Z,15.35
2019-05-06T18:45:22.047Z,15.24
2019-05-06T18:47:53.874Z,15.19
2019-05-06T18:50:24.560Z,15.13
2019-05-06T18:52:55.148Z,15.05
2019-05-06T18:55:26.922Z,15.05
2019-05-06T18:57:57.343Z,14.97
2019-05-06T19:00:27.906Z,14.85
2019-05-06T19:02:58.586Z,14.80
2019-05-06T19:05:34.550Z,14.79
2019-05-06T19:08:08.550Z,14.71
2019-05-06T19:10:39.250Z,14.66
2019-05-06T19:16:51.823Z,14.66
2019-05-06T19:22:00.307Z,14.51
2019-05-06T19:24:33.647Z,14.53
2019-05-06T19:27:04.392Z,14.46
2019-05-06T19:29:35.068Z,14.47
2019-05-06T19:32:05.829Z,14.44
2019-05-06T19:34:36.865Z,14.33
2019-05-06T19:37:07.174Z,14.34
2019-05-06T19:39:38.411Z,14.36
2019-05-06T19:42:09.129Z,14.41
2019-05-06T19:44:39.818Z,14.34
2019-05-06T19:47:10.607Z,14.25
2019-05-06T19:49:42.435Z,14.17
2019-05-06T19:52:13.641Z,14.11
2019-05-06T19:54:44.145Z,14.15
2019-05-06T19:57:16.095Z,14.13
2019-05-06T19:59:46.681Z,14.09
2019-05-06T20:02:17.209Z,14.07
2019-05-06T20:04:53.235Z,14.06
2019-05-06T20:07:45.862Z,14.09
2019-05-06T20:10:52.739Z,14.14
2019-05-06T20:13:24.152Z,14.18
2019-05-06T20:15:55.358Z,14.19
2019-05-06T20:18:25.756Z,14.23
2019-05-06T20:20:56.327Z,14.27
2019-05-06T20:23:27.598Z,14.21
2019-05-06T20:25:58.414Z,14.24
2019-05-06T20:28:28.894Z,14.25
2019-05-06T20:30:59.491Z,14.25
2019-05-06T20:33:32.512Z,14.24
2019-05-06T20:36:04.086Z,14.19
2019-05-06T20:38:34.810Z,14.25
2019-05-06T20:41:06.794Z,14.19
2019-05-06T20:43:37.125Z,14.19
2019-05-06T20:46:07.619Z,14.10
2019-05-06T20:48:38.005Z,14.08
2019-05-06T20:51:08.555Z,14.04
2019-05-06T20:53:38.911Z,14.04
2019-05-06T20:56:09.236Z,14.12
2019-05-06T20:58:41.843Z,14.18
2019-05-06T21:01:11.737Z,14.20
2019-05-06T21:03:42.520Z,14.20
2019-05-06T21:06:13.567Z,14.18
2019-05-06T21:08:44.028Z,14.13
2019-05-06T21:11:25.897Z,14.11
2019-05-06T21:13:46.972Z,14.18
2019-05-06T21:16:17.653Z,14.20
2019-05-06T21:18:48.263Z,14.23
2019-05-06T21:21:18.774Z,14.30
2019-05-06T21:23:52.437Z,14.29
2019-05-06T21:26:24.518Z,14.24
2019-05-06T21:28:54.923Z,14.25
2019-05-06T21:31:25.574Z,14.24
2019-05-06T21:33:56.060Z,14.28
2019-05-06T21:36:26.606Z,14.33
2019-05-06T21:38:57.056Z,14.45
2019-05-06T21:41:27.661Z,14.41
2019-05-06T21:43:59.042Z,14.38
2019-05-06T21:46:31.903Z,14.33
2019-05-06T21:49:03.262Z,14.25
2019-05-06T21:51:33.649Z,14.27
2019-05-06T21:54:12.530Z,14.16
2019-05-06T21:56:44.023Z,14.12
2019-05-06T21:59:15.464Z,14.08
2019-05-06T22:01:46.692Z,14.03
2019-05-06T22:04:17.320Z,14.05
2019-05-06T22:06:47.983Z,14.02
2019-05-06T22:09:22.230Z,14.08
2019-05-06T22:11:53.146Z,14.10
2019-05-06T22:14:24.428Z,14.03
2019-05-06T22:16:54.928Z,14.02
2019-05-06T22:19:25.512Z,14.00
2019-05-06T22:22:08.597Z,13.97
2019-05-06T22:24:57.663Z,13.91
2019-05-06T22:27:27.078Z,13.89
2019-05-06T22:29:58.791Z,13.85
2019-05-06T22:32:33.157Z,13.80
2019-05-06T22:35:04.706Z,13.68
2019-05-06T22:37:36.707Z,13.57
2019-05-06T22:40:07.639Z,13.53
2019-05-06T22:42:39.298Z,13.51
2019-05-06T22:45:12.557Z,13.43
2019-05-06T22:47:43.385Z,13.41
2019-05-06T22:50:14.278Z,13.34
2019-05-06T22:53:54.724Z,13.28
2019-05-06T22:56:25.589Z,13.20
2019-05-06T22:58:56.239Z,13.18
2019-05-06T23:01:44.581Z,13.22
2019-05-06T23:04:17.233Z,13.27
2019-05-06T23:06:48.159Z,13.33
2019-05-06T23:09:18.940Z,13.29
2019-05-06T23:11:49.733Z,13.23
2019-05-06T23:14:30.594Z,13.26
2019-05-06T23:16:53.751Z,13.32
2019-05-06T23:19:24.655Z,13.23
2019-05-06T23:21:55.833Z,13.29
2019-05-06T23:24:26.507Z,13.32
2019-05-06T23:26:56.831Z,13.37
2019-05-06T23:29:27.604Z,13.43
2019-05-06T23:31:58.206Z,13.47
2019-05-06T23:34:28.697Z,13.45
2019-05-06T23:37:22.504Z,13.54
2019-05-06T23:40:33.345Z,13.47
2019-05-06T23:43:39.014Z,13.48
2019-05-06T23:46:44.875Z,13.55
2019-05-06T23:49:52.691Z,13.58
2019-05-06T23:52:59.053Z,13.57
2019-05-06T23:56:05.013Z,13.52
2019-05-06T23:58:35.535Z,13.47
